Time;durP1;ratioP1;P1;durP2;ratioP2;P2;SDS_P1;SDS_P2;PMS_P1;PMS_P2;Temp;Humidity;BMP_temperature;BMP_pressure;BME280_temperature;BME280_humidity;BME280_pressure;Samples;Min_cycle;Max_cycle;Signal;HPM_P1;HPM_P2
2024/03/03 00:02:14;;;;;;;38.03;17.63;;;9.90;93.40;;;;;;5051981;28;20036;-87
2024/03/03 00:04:40;;;;;;;36.38;18.77;;;10.00;93.30;;;;;;5046986;28;20021;-89
2024/03/03 00:07:05;;;;;;;37.90;18.55;;;9.90;94.30;;;;;;5046717;28;20044;-89
2024/03/03 00:09:32;;;;;;;34.92;17.02;;;9.70;95.00;;;;;;5055118;28;20085;-88
2024/03/03 00:11:58;;;;;;;37.75;16.83;;;9.70;95.00;;;;;;5055301;28;20014;-89
2024/03/03 00:14:24;;;;;;;37.33;17.38;;;9.70;95.10;;;;;;5054051;28;20048;-86
2024/03/03 00:16:50;;;;;;;38.92;16.60;;;9.70;95.20;;;;;;5052335;28;20143;-88
2024/03/03 00:19:16;;;;;;;35.88;16.70;;;9.60;95.10;;;;;;5056327;28;20025;-88
2024/03/03 00:21:42;;;;;;;35.20;16.33;;;9.50;95.60;;;;;;5053597;28;20024;-87
2024/03/03 00:24:07;;;;;;;32.85;17.45;;;9.50;96.00;;;;;;5047826;28;20036;-88
2024/03/03 00:26:33;;;;;;;35.85;16.77;;;9.50;96.00;;;;;;5051246;28;20517;-88
2024/03/03 00:29:00;;;;;;;39.28;18.17;;;9.40;96.10;;;;;;5051900;28;20147;-87
2024/03/03 00:31:26;;;;;;;34.95;17.55;;;9.30;96.70;;;;;;5052485;28;20029;-89
2024/03/03 00:33:52;;;;;;;31.65;15.73;;;9.30;97.40;;;;;;5053095;28;20031;-88
2024/03/03 00:36:18;;;;;;;31.42;15.90;;;9.20;97.40;;;;;;5053322;28;20021;-87
2024/03/03 00:38:44;;;;;;;36.85;18.15;;;9.20;97.50;;;;;;5056685;28;20112;-87
2024/03/03 00:41:10;;;;;;;35.45;18.17;;;9.10;97.70;;;;;;5052110;28;20487;-88
2024/03/03 00:43:37;;;;;;;35.65;17.08;;;9.10;97.70;;;;;;5050417;28;20075;-88
2024/03/03 00:46:03;;;;;;;35.00;18.33;;;9.10;97.60;;;;;;5053671;28;20029;-88
2024/03/03 00:48:28;;;;;;;35.90;18.20;;;9.10;98.00;;;;;;5051259;28;20078;-88
2024/03/03 00:50:54;;;;;;;39.33;17.45;;;9.10;98.20;;;;;;5052529;28;20028;-87
2024/03/03 00:53:23;;;;;;;38.47;17.83;;;9.00;98.40;;;;;;5052860;28;20496;-87
2024/03/03 00:55:51;;;;;;;33.15;16.20;;;8.80;98.70;;;;;;5053633;28;20021;-88
2024/03/03 00:58:17;;;;;;;33.20;17.23;;;8.80;99.00;;;;;;5054231;28;20028;-88
2024/03/03 01:00:43;;;;;;;39.47;19.02;;;8.80;99.30;;;;;;5043672;28;20163;-88
2024/03/03 01:03:09;;;;;;;38.47;17.30;;;8.80;99.70;;;;;;5054022;28;20452;-88
2024/03/03 01:05:35;;;;;;;40.50;16.45;;;8.70;99.90;;;;;;5054401;28;20056;-88
2024/03/03 01:08:01;;;;;;;32.28;16.10;;;8.60;99.90;;;;;;5047964;28;20057;-86
2024/03/03 01:10:27;;;;;;;35.75;17.10;;;8.60;99.90;;;;;;5051234;28;20021;-86
2024/03/03 01:12:53;;;;;;;33.28;16.02;;;8.50;99.90;;;;;;5049475;28;20066;-88
2024/03/03 01:15:19;;;;;;;35.38;16.00;;;8.50;99.90;;;;;;5053263;28;20066;-87
2024/03/03 01:17:44;;;;;;;34.33;15.85;;;8.40;99.90;;;;;;5052060;28;20128;-89
2024/03/03 01:20:12;;;;;;;36.30;16.45;;;8.40;99.90;;;;;;5058102;28;20109;-86
2024/03/03 01:22:37;;;;;;;33.90;16.80;;;8.50;99.90;;;;;;5052169;28;20021;-87
2024/03/03 01:25:04;;;;;;;33.92;14.75;;;8.50;99.90;;;;;;5040013;28;20100;-87
2024/03/03 01:27:30;;;;;;;33.28;16.35;;;8.50;99.90;;;;;;5053505;28;20067;-87
2024/03/03 01:29:55;;;;;;;33.75;16.17;;;8.50;99.90;;;;;;5053917;28;20486;-88
2024/03/03 01:32:24;;;;;;;34.00;16.15;;;8.50;99.90;;;;;;5052753;28;20078;-88
2024/03/03 01:34:50;;;;;;;32.78;16.23;;;8.40;99.90;;;;;;5053203;28;20025;-87
2024/03/03 01:37:19;;;;;;;31.15;15.02;;;8.40;99.90;;;;;;5045168;28;20026;-87
2024/03/03 01:39:46;;;;;;;34.97;15.27;;;8.40;99.90;;;;;;5057874;28;20059;-87
2024/03/03 01:42:12;;;;;;;;;;;8.50;99.90;;;;;;5066985;28;20032;-88
2024/03/03 01:44:38;;;;;;;27.30;13.55;;;8.40;99.90;;;;;;5068263;28;19936;-86
2024/03/03 01:47:04;;;;;;;34.50;15.85;;;8.40;99.90;;;;;;5054615;28;20017;-89
2024/03/03 01:49:31;;;;;;;33.75;16.77;;;8.30;99.90;;;;;;5052290;28;20029;-86
2024/03/03 01:51:59;;;;;;;44.60;16.83;;;8.30;99.90;;;;;;5049793;28;20024;-87
2024/03/03 01:54:25;;;;;;;39.40;16.27;;;8.30;99.90;;;;;;5049422;28;20029;-88
2024/03/03 01:56:51;;;;;;;29.50;13.93;;;8.30;99.90;;;;;;5052802;28;20511;-87
2024/03/03 01:59:17;;;;;;;30.05;13.93;;;8.20;99.90;;;;;;5053816;28;20024;-88
2024/03/03 02:01:44;;;;;;;31.17;14.45;;;8.10;99.90;;;;;;5034209;28;20033;-87
2024/03/03 02:04:12;;;;;;;31.40;15.50;;;8.00;99.90;;;;;;5034706;28;20044;-88
2024/03/03 02:06:40;;;;;;;31.85;15.23;;;8.00;99.90;;;;;;5053632;28;20029;-90
2024/03/03 02:09:06;;;;;;;40.22;17.70;;;8.10;99.90;;;;;;5053839;28;20079;-89
2024/03/03 02:11:32;;;;;;;40.30;17.67;;;8.10;99.90;;;;;;5044481;28;20033;-87
2024/03/03 02:13:59;;;;;;;39.83;17.42;;;8.00;99.90;;;;;;5054585;28;20151;-87
2024/03/03 02:16:24;;;;;;;43.10;19.48;;;8.00;99.90;;;;;;5051331;28;20028;-87
2024/03/03 02:18:50;;;;;;;47.08;18.90;;;7.90;99.90;;;;;;5049871;28;20029;-87
2024/03/03 02:21:23;;;;;;;37.05;18.63;;;7.90;99.90;;;;;;5055565;28;20033;-87
2024/03/03 02:23:50;;;;;;;42.80;17.30;;;7.90;99.90;;;;;;5054920;28;20021;-87
2024/03/03 02:26:21;;;;;;;47.97;20.20;;;7.90;99.90;;;;;;5053707;28;20032;-88
2024/03/03 02:28:47;;;;;;;44.42;19.50;;;7.90;99.90;;;;;;5055882;28;20029;-87
2024/03/03 02:31:13;;;;;;;41.03;17.05;;;7.90;99.90;;;;;;5056020;28;20073;-88
2024/03/03 02:33:39;;;;;;;37.95;17.10;;;7.90;99.90;;;;;;5057552;28;20052;-88
2024/03/03 02:36:05;;;;;;;42.45;17.20;;;7.90;99.90;;;;;;5051950;28;20033;-87
2024/03/03 02:38:30;;;;;;;41.78;17.30;;;7.90;99.90;;;;;;5053310;28;20067;-87
2024/03/03 02:40:56;;;;;;;40.80;18.77;;;7.90;99.90;;;;;;5046992;28;20070;-88
2024/03/03 02:43:22;;;;;;;38.33;19.08;;;7.90;99.90;;;;;;5052826;28;20116;-87
2024/03/03 02:45:47;;;;;;;36.88;15.98;;;7.80;99.90;;;;;;5056474;28;20040;-86
2024/03/03 02:48:13;;;;;;;40.40;16.92;;;7.80;99.90;;;;;;5062584;28;20036;-87
2024/03/03 02:50:39;;;;;;;33.47;15.27;;;7.70;99.90;;;;;;5057848;28;20048;-87
2024/03/03 02:53:04;;;;;;;38.70;17.95;;;7.60;99.90;;;;;;5054236;28;20021;-88
2024/03/03 02:55:30;;;;;;;40.53;17.80;;;7.60;99.90;;;;;;5057217;28;20517;-87
2024/03/03 02:57:57;;;;;;;42.13;18.63;;;7.60;99.90;;;;;;5056561;28;20107;-87
2024/03/03 03:00:22;;;;;;;44.78;19.92;;;7.70;99.90;;;;;;5058862;28;20026;-87
2024/03/03 03:02:48;;;;;;;42.63;18.38;;;7.70;99.90;;;;;;5040929;28;20033;-87
2024/03/03 03:05:14;;;;;;;44.63;17.98;;;7.60;99.90;;;;;;5056053;28;20036;-87
2024/03/03 03:07:39;;;;;;;43.97;19.65;;;7.60;99.90;;;;;;5054840;28;20112;-87
2024/03/03 03:10:06;;;;;;;43.38;19.23;;;7.70;99.90;;;;;;5055059;28;20036;-87
2024/03/03 03:12:31;;;;;;;44.08;20.83;;;7.70;99.90;;;;;;5062823;28;20032;-88
2024/03/03 03:14:57;;;;;;;50.97;20.88;;;7.70;99.90;;;;;;5055067;28;20025;-87
2024/03/03 03:17:23;;;;;;;43.80;21.10;;;7.70;99.90;;;;;;5056098;28;20029;-87
2024/03/03 03:19:49;;;;;;;43.42;19.73;;;7.70;99.90;;;;;;5048671;28;20090;-88
2024/03/03 03:22:16;;;;;;;50.95;21.67;;;7.80;99.90;;;;;;5036405;28;20086;-87
2024/03/03 03:24:42;;;;;;;42.58;19.63;;;7.80;99.90;;;;;;5052907;28;20067;-87
2024/03/03 03:27:07;;;;;;;47.90;19.35;;;7.70;99.90;;;;;;5055175;28;20579;-87
2024/03/03 03:29:33;;;;;;;47.20;20.35;;;7.70;99.90;;;;;;5053417;28;20029;-88
2024/03/03 03:31:59;;;;;;;43.30;19.85;;;7.80;99.90;;;;;;5052826;28;20077;-88
2024/03/03 03:34:25;;;;;;;44.40;19.95;;;7.80;99.90;;;;;;5054785;28;20470;-88
2024/03/03 03:36:50;;;;;;;47.83;21.10;;;7.70;99.90;;;;;;5055199;28;20090;-87
2024/03/03 03:39:16;;;;;;;47.35;18.40;;;7.70;99.90;;;;;;5054054;28;20036;-88
2024/03/03 03:41:49;;;;;;;55.03;20.50;;;7.70;99.90;;;;;;5054473;28;20506;-87
2024/03/03 03:44:16;;;;;;;50.35;20.05;;;7.70;99.90;;;;;;5053183;28;20017;-87
2024/03/03 03:46:42;;;;;;;45.45;19.15;;;7.70;99.90;;;;;;5052334;28;20035;-87
2024/03/03 03:49:12;;;;;;;44.55;20.75;;;7.70;99.90;;;;;;5056301;28;20088;-85
2024/03/03 03:51:39;;;;;;;41.72;20.83;;;7.70;99.90;;;;;;5053862;28;20052;-88
2024/03/03 03:54:07;;;;;;;50.42;22.48;;;7.70;99.90;;;;;;5054345;28;20060;-87
2024/03/03 03:56:35;;;;;;;42.90;19.15;;;7.70;99.90;;;;;;5055649;28;20593;-87
2024/03/03 03:59:03;;;;;;;51.53;19.88;;;7.60;99.90;;;;;;5052625;28;20722;-87
2024/03/03 04:01:28;;;;;;;42.58;18.90;;;7.60;99.90;;;;;;5063965;28;20021;-87
2024/03/03 04:03:59;;;;;;;49.50;19.83;;;7.60;99.90;;;;;;5073442;28;20022;-87
2024/03/03 04:06:26;;;;;;;38.65;18.83;;;7.60;99.90;;;;;;5059938;28;20029;-87
2024/03/03 04:08:52;;;;;;;45.30;18.65;;;7.60;99.90;;;;;;5040530;28;20147;-87
2024/03/03 04:11:18;;;;;;;47.90;19.13;;;7.60;99.90;;;;;;5055096;28;20036;-87
2024/03/03 04:13:46;;;;;;;51.67;21.77;;;7.50;99.90;;;;;;5054422;28;20049;-88
2024/03/03 04:16:12;;;;;;;48.67;20.35;;;7.50;99.90;;;;;;5053538;28;20087;-87
2024/03/03 04:18:38;;;;;;;49.45;20.23;;;7.50;99.90;;;;;;5053750;28;20025;-87
2024/03/03 04:21:04;;;;;;;46.58;20.40;;;7.50;99.90;;;;;;5053423;28;20052;-86
2024/03/03 04:23:29;;;;;;;52.13;22.33;;;7.50;99.90;;;;;;5053949;28;20033;-87
2024/03/03 04:25:55;;;;;;;50.72;20.02;;;7.40;99.90;;;;;;5052608;28;20033;-86
2024/03/03 04:28:21;;;;;;;47.08;22.77;;;7.40;99.90;;;;;;5034322;28;20029;-87
2024/03/03 04:30:46;;;;;;;50.97;21.27;;;7.40;99.90;;;;;;5053726;28;20036;-87
2024/03/03 04:33:12;;;;;;;46.42;20.77;;;7.30;99.90;;;;;;5053374;28;20029;-87
2024/03/03 04:35:42;;;;;;;52.85;22.02;;;7.30;99.90;;;;;;5045273;28;20036;-87
2024/03/03 04:38:08;;;;;;;42.55;18.63;;;7.30;99.90;;;;;;5051528;28;20056;-87
2024/03/03 04:40:33;;;;;;;52.25;21.25;;;7.30;99.90;;;;;;5054040;28;20041;-87
2024/03/03 04:42:59;;;;;;;50.00;20.17;;;7.30;99.90;;;;;;5053039;28;20026;-88
2024/03/03 04:45:25;;;;;;;44.72;20.63;;;7.30;99.90;;;;;;5047224;28;20029;-87
2024/03/03 04:47:50;;;;;;;44.45;19.02;;;7.20;99.90;;;;;;5052335;28;20475;-87
2024/03/03 04:50:16;;;;;;;44.30;20.10;;;7.30;99.90;;;;;;5052268;28;20103;-87
2024/03/03 04:52:42;;;;;;;50.83;21.95;;;7.20;99.90;;;;;;5034696;28;20021;-87
2024/03/03 04:55:07;;;;;;;50.22;19.80;;;7.20;99.90;;;;;;5053362;28;20028;-87
2024/03/03 04:57:33;;;;;;;45.85;20.55;;;7.20;99.90;;;;;;5052095;28;20025;-87
2024/03/03 04:59:59;;;;;;;43.33;21.40;;;7.20;99.90;;;;;;5054619;28;20025;-87
2024/03/03 05:02:25;;;;;;;45.50;18.23;;;7.20;99.90;;;;;;5052045;28;20025;-87
2024/03/03 05:04:51;;;;;;;47.10;18.00;;;7.20;99.90;;;;;;5052550;28;20550;-87
2024/03/03 05:07:17;;;;;;;50.75;20.63;;;7.20;99.90;;;;;;5053292;28;20029;-87
2024/03/03 05:09:43;;;;;;;45.50;21.50;;;7.20;99.90;;;;;;5052071;28;20021;-86
2024/03/03 05:12:09;;;;;;;44.70;19.30;;;7.20;99.90;;;;;;5052369;28;20108;-87
2024/03/03 05:14:35;;;;;;;44.20;20.27;;;7.20;99.90;;;;;;5053378;28;20029;-86
2024/03/03 05:17:01;;;;;;;49.38;22.35;;;7.20;99.90;;;;;;5052744;28;20465;-87
2024/03/03 05:19:30;;;;;;;45.60;20.90;;;7.10;99.90;;;;;;5052145;28;20063;-87
2024/03/03 05:21:55;;;;;;;45.40;20.33;;;7.20;99.90;;;;;;5050330;28;20033;-87
2024/03/03 05:24:24;;;;;;;54.22;22.60;;;7.10;99.90;;;;;;5049863;28;20048;-87
2024/03/03 05:26:53;;;;;;;47.78;18.67;;;7.10;99.90;;;;;;5035405;28;20556;-87
2024/03/03 05:29:19;;;;;;;50.67;20.38;;;7.10;99.90;;;;;;5046064;28;20031;-88
2024/03/03 05:31:44;;;;;;;50.88;20.42;;;7.00;99.90;;;;;;5042036;28;20029;-87
2024/03/03 05:34:15;;;;;;;50.53;20.15;;;7.00;99.90;;;;;;5042022;28;20025;-87
2024/03/03 05:36:42;;;;;;;56.33;20.80;;;7.10;99.90;;;;;;5046298;28;20025;-88
2024/03/03 05:39:10;;;;;;;49.10;20.95;;;7.00;99.90;;;;;;5044824;28;20029;-87
2024/03/03 05:41:39;;;;;;;52.35;21.45;;;7.00;99.90;;;;;;5033531;28;20025;-87
2024/03/03 05:44:07;;;;;;;51.45;20.60;;;7.00;99.90;;;;;;5051463;28;20028;-87
2024/03/03 05:46:36;;;;;;;42.85;20.80;;;7.00;99.90;;;;;;5052975;28;20036;-87
2024/03/03 05:49:02;;;;;;;47.65;20.70;;;7.00;99.90;;;;;;5055908;28;20491;-88
2024/03/03 05:51:28;;;;;;;56.05;18.88;;;7.00;99.90;;;;;;5050996;28;20560;-86
2024/03/03 05:53:54;;;;;;;49.10;20.42;;;7.00;99.90;;;;;;5057408;28;20021;-87
2024/03/03 05:56:20;;;;;;;49.20;21.17;;;7.00;99.90;;;;;;5048330;28;20036;-87
2024/03/03 05:58:45;;;;;;;43.10;19.65;;;6.90;99.90;;;;;;5057088;28;20052;-88
2024/03/03 06:01:11;;;;;;;54.03;20.95;;;6.90;99.90;;;;;;5046236;28;20491;-87
2024/03/03 06:03:38;;;;;;;49.08;20.52;;;6.90;99.90;;;;;;5062167;28;20029;-87
2024/03/03 06:06:08;;;;;;;45.42;19.92;;;6.90;99.90;;;;;;5058678;28;20021;-88
2024/03/03 06:08:35;;;;;;;53.78;21.40;;;6.90;99.90;;;;;;5056234;28;20599;-88
2024/03/03 06:11:00;;;;;;;50.08;21.75;;;6.90;99.90;;;;;;5054599;28;20057;-86
2024/03/03 06:13:26;;;;;;;49.55;23.40;;;6.90;99.90;;;;;;5056104;28;20033;-88
2024/03/03 06:15:52;;;;;;;48.70;22.60;;;6.90;99.90;;;;;;5055963;28;20446;-87
2024/03/03 06:18:18;;;;;;;50.03;21.38;;;6.80;99.90;;;;;;5055641;28;20523;-86
2024/03/03 06:20:44;;;;;;;48.53;19.90;;;6.80;99.90;;;;;;5055378;28;20024;-87
2024/03/03 06:23:10;;;;;;;54.30;23.00;;;6.90;99.90;;;;;;5063806;28;20099;-86
2024/03/03 06:25:36;;;;;;;46.22;19.08;;;6.90;99.90;;;;;;5074998;28;20032;-87
2024/03/03 06:28:01;;;;;;;54.83;21.58;;;6.80;99.90;;;;;;5065306;28;20020;-87
2024/03/03 06:30:28;;;;;;;49.28;21.77;;;6.90;99.90;;;;;;5057030;28;20029;-85
2024/03/03 06:32:54;;;;;;;48.50;21.35;;;6.90;99.90;;;;;;5055316;28;20071;-87
2024/03/03 06:35:20;;;;;;;50.15;22.55;;;6.90;99.90;;;;;;5055717;28;20032;-87
2024/03/03 06:37:50;;;;;;;46.83;19.38;;;6.90;99.90;;;;;;5055727;28;20067;-87
2024/03/03 06:40:16;;;;;;;48.85;21.17;;;6.90;99.90;;;;;;5055969;28;20060;-86
2024/03/03 06:42:42;;;;;;;50.67;21.77;;;7.00;99.90;;;;;;5053702;28;20048;-87
2024/03/03 06:45:09;;;;;;;45.75;19.67;;;6.90;99.90;;;;;;5054696;28;20060;-87
2024/03/03 06:47:35;;;;;;;58.55;26.48;;;6.90;99.90;;;;;;5050526;28;20023;-87
2024/03/03 06:50:01;;;;;;;44.63;21.45;;;7.00;99.90;;;;;;5052460;28;20041;-88
2024/03/03 06:52:27;;;;;;;49.75;22.88;;;6.90;99.90;;;;;;5054853;28;20403;-86
2024/03/03 06:54:55;;;;;;;51.88;21.65;;;7.00;99.90;;;;;;5055294;28;20078;-86
2024/03/03 06:57:21;;;;;;;53.30;24.95;;;6.90;99.90;;;;;;5055129;28;20396;-87
2024/03/03 06:59:47;;;;;;;50.47;25.70;;;6.90;99.90;;;;;;5051724;28;20029;-85
2024/03/03 07:02:13;;;;;;;54.30;21.92;;;6.90;99.90;;;;;;5045737;28;20092;-86
2024/03/03 07:04:38;;;;;;;46.65;18.55;;;6.90;99.90;;;;;;5052149;28;20121;-86
2024/03/03 07:07:04;;;;;;;45.78;22.08;;;7.00;99.90;;;;;;5053361;28;20031;-87
2024/03/03 07:09:30;;;;;;;48.92;21.48;;;7.00;99.90;;;;;;5053314;28;20025;-88
2024/03/03 07:11:56;;;;;;;52.72;21.48;;;7.10;99.90;;;;;;5046647;28;20517;-86
2024/03/03 07:14:23;;;;;;;46.45;21.08;;;7.10;99.90;;;;;;5043858;28;20056;-87
2024/03/03 07:16:49;;;;;;;45.03;20.85;;;7.10;99.90;;;;;;5052522;28;20045;-88
2024/03/03 07:19:15;;;;;;;49.60;21.17;;;7.20;99.90;;;;;;5051844;28;20078;-88
2024/03/03 07:21:42;;;;;;;50.60;20.52;;;7.20;99.90;;;;;;5042425;28;20048;-86
2024/03/03 07:24:07;;;;;;;49.30;20.77;;;7.20;99.90;;;;;;5053234;28;20122;-88
2024/03/03 07:26:36;;;;;;;43.67;21.15;;;7.30;99.90;;;;;;5055634;28;20115;-93
2024/03/03 07:29:03;;;;;;;50.65;20.90;;;7.30;99.90;;;;;;5058780;28;20040;-91
2024/03/03 07:31:29;;;;;;;50.65;20.77;;;7.30;99.90;;;;;;5055465;28;20025;-91
2024/03/03 07:33:54;;;;;;;45.17;20.13;;;7.30;99.90;;;;;;5054617;28;20064;-90
2024/03/03 07:36:20;;;;;;;53.22;22.52;;;7.40;99.90;;;;;;5049208;28;20037;-90
2024/03/03 07:38:46;;;;;;;47.00;20.33;;;7.50;99.90;;;;;;5064821;28;20032;-92
2024/03/03 07:41:12;;;;;;;52.72;21.83;;;7.50;99.90;;;;;;5055612;28;20024;-90
2024/03/03 07:43:37;;;;;;;51.58;21.35;;;7.50;99.90;;;;;;5053606;28;20055;-89
2024/03/03 07:46:03;;;;;;;49.90;20.58;;;7.50;99.90;;;;;;5046557;28;20028;-89
2024/03/03 07:48:29;;;;;;;49.08;20.88;;;7.50;99.90;;;;;;5054500;28;20032;-88
2024/03/03 07:50:55;;;;;;;45.05;20.55;;;7.50;99.90;;;;;;5052499;28;20033;-89
2024/03/03 07:53:21;;;;;;;51.70;23.10;;;7.50;99.90;;;;;;5051892;28;20017;-90
2024/03/03 07:55:47;;;;;;;41.08;19.35;;;7.60;99.90;;;;;;5053471;28;20029;-89
2024/03/03 07:58:13;;;;;;;46.20;20.80;;;7.60;99.90;;;;;;5065410;28;20079;-91
2024/03/03 08:03:09;;;;;;;47.97;23.15;;;7.70;99.90;;;;;;5076928;28;20044;-90
2024/03/03 08:05:35;;;;;;;51.78;21.50;;;7.70;99.90;;;;;;5069847;28;20025;-91
2024/03/03 08:08:01;;;;;;;50.85;21.45;;;7.70;99.90;;;;;;5061208;28;20037;-92
2024/03/03 08:10:27;;;;;;;44.90;20.52;;;7.80;99.90;;;;;;5085119;28;20017;-92
2024/03/03 08:12:54;;;;;;;43.10;20.33;;;7.90;99.90;;;;;;5085597;28;20058;-91
2024/03/03 08:15:20;;;;;;;50.90;22.00;;;8.00;99.90;;;;;;5089066;28;20107;-92
2024/03/03 08:17:46;;;;;;;57.38;23.58;;;8.10;99.90;;;;;;5066179;28;20029;-91
2024/03/03 08:20:11;;;;;;;50.67;21.50;;;8.10;99.90;;;;;;5078140;28;20329;-90
2024/03/03 08:22:38;;;;;;;58.88;26.63;;;8.10;99.60;;;;;;5083508;28;20698;-92
2024/03/03 08:25:05;;;;;;;44.20;21.60;;;8.20;99.60;;;;;;5077789;28;20120;-91
2024/03/03 08:27:34;;;;;;;52.20;22.40;;;8.20;99.00;;;;;;5077448;28;20025;-92
2024/03/03 08:30:01;;;;;;;55.35;21.77;;;8.20;98.90;;;;;;5077646;28;20040;-92
2024/03/03 08:32:27;;;;;;;48.63;22.42;;;8.30;98.90;;;;;;5077005;28;20111;-93
2024/03/03 08:34:53;;;;;;;44.92;20.63;;;8.40;98.20;;;;;;5059996;28;20121;-92
2024/03/03 08:37:18;;;;;;;48.88;21.95;;;8.40;97.90;;;;;;5059995;28;20078;-93
2024/03/03 08:39:44;;;;;;;48.30;21.77;;;8.50;98.50;;;;;;5077142;28;20100;-91
2024/03/03 08:42:10;;;;;;;43.65;21.52;;;8.60;97.80;;;;;;5079054;28;20475;-91
2024/03/03 08:44:36;;;;;;;47.33;20.20;;;8.50;97.30;;;;;;5077626;28;20073;-93
2024/03/03 08:47:01;;;;;;;52.30;23.08;;;8.60;97.00;;;;;;5059629;28;20024;-91
2024/03/03 08:49:27;;;;;;;47.47;20.92;;;8.60;97.00;;;;;;5059820;28;20020;-93
2024/03/03 08:51:54;;;;;;;45.42;21.77;;;8.70;96.90;;;;;;5060204;28;20024;-92
2024/03/03 08:54:20;;;;;;;47.75;22.38;;;8.70;96.00;;;;;;5078123;28;20028;-92
2024/03/03 08:56:45;;;;;;;55.90;24.38;;;8.70;96.30;;;;;;5060020;28;20024;-92
2024/03/03 08:59:11;;;;;;;59.55;30.23;;;8.80;96.70;;;;;;5079084;28;20021;-92
2024/03/03 09:01:37;;;;;;;54.43;26.70;;;8.80;95.90;;;;;;5030729;28;1411086;-92
2024/03/03 09:04:03;;;;;;;50.45;21.40;;;8.90;95.60;;;;;;5063756;28;20035;-93
2024/03/03 09:06:35;;;;;;;47.80;22.10;;;9.00;94.70;;;;;;5061032;28;20094;-93
2024/03/03 09:09:01;;;;;;;53.35;26.60;;;9.00;94.70;;;;;;5078934;28;20013;-90
2024/03/03 09:11:27;;;;;;;51.03;25.02;;;9.10;94.60;;;;;;5076983;28;20131;-91
2024/03/03 09:13:53;;;;;;;46.60;23.38;;;9.10;94.60;;;;;;5059832;28;20086;-91
2024/03/03 09:16:19;;;;;;;49.95;20.73;;;9.20;93.60;;;;;;5077233;28;20024;-90
2024/03/03 09:18:44;;;;;;;41.65;20.88;;;9.20;93.90;;;;;;5061990;28;20036;-89
2024/03/03 09:21:10;;;;;;;47.22;22.20;;;9.20;93.60;;;;;;5077647;28;20206;-90
2024/03/03 09:23:38;;;;;;;47.05;21.73;;;9.30;93.30;;;;;;5062561;28;20039;-89
2024/03/03 09:26:04;;;;;;;48.20;20.65;;;9.30;93.00;;;;;;5077493;28;20032;-91
2024/03/03 09:28:29;;;;;;;44.20;18.70;;;9.20;93.10;;;;;;5088177;28;20100;-92
2024/03/03 09:30:55;;;;;;;46.50;19.58;;;9.20;93.10;;;;;;5084395;28;20024;-91
2024/03/03 09:33:20;;;;;;;52.05;25.10;;;9.30;93.40;;;;;;5080642;28;20088;-92
2024/03/03 09:35:46;;;;;;;50.47;24.05;;;9.40;92.80;;;;;;5076944;28;20263;-91
2024/03/03 09:38:12;;;;;;;62.60;28.27;;;9.50;91.10;;;;;;5078232;28;20029;-93
2024/03/03 09:40:38;;;;;;;49.55;22.98;;;9.50;92.10;;;;;;5059872;28;20024;-90
2024/03/03 09:43:06;;;;;;;49.10;25.15;;;9.60;91.70;;;;;;5059327;28;20118;-91
2024/03/03 09:45:32;;;;;;;57.08;25.45;;;9.60;91.60;;;;;;5076575;28;20028;-91
2024/03/03 09:48:02;;;;;;;53.33;23.25;;;9.70;91.00;;;;;;5079316;28;20435;-90
2024/03/03 09:50:28;;;;;;;47.47;21.98;;;9.70;91.10;;;;;;5076812;28;20487;-90
2024/03/03 09:52:57;;;;;;;47.30;21.88;;;9.90;90.60;;;;;;5076241;28;20024;-93
2024/03/03 09:55:25;;;;;;;47.33;23.88;;;9.90;89.80;;;;;;5075190;28;20035;-90
2024/03/03 09:57:51;;;;;;;48.53;22.20;;;10.00;89.50;;;;;;5077565;28;20111;-90
2024/03/03 10:00:17;;;;;;;47.15;23.27;;;10.00;89.50;;;;;;5076382;28;20035;-91
2024/03/03 10:02:43;;;;;;;42.67;20.20;;;10.10;89.20;;;;;;5074557;28;20036;-92
2024/03/03 10:05:10;;;;;;;50.38;24.45;;;10.30;88.40;;;;;;5068813;28;20077;-90
2024/03/03 10:07:53;;;;;;;57.00;25.23;;;10.30;88.30;;;;;;5077899;28;20074;-90
2024/03/03 10:10:26;;;;;;;44.17;20.55;;;10.50;87.60;;;;;;5058907;28;20040;-91
2024/03/03 10:12:52;;;;;;;52.35;22.58;;;10.50;86.90;;;;;;5077657;28;20032;-90
2024/03/03 10:15:22;;;;;;;46.83;21.40;;;10.70;85.90;;;;;;5080325;28;20029;-90
2024/03/03 10:17:48;;;;;;;46.95;20.00;;;10.70;84.90;;;;;;5084479;28;20108;-88
2024/03/03 10:20:13;;;;;;;45.40;20.50;;;10.80;83.90;;;;;;5087506;28;20072;-91
2024/03/03 10:22:43;;;;;;;45.92;20.98;;;10.90;83.40;;;;;;5090820;28;20394;-91
2024/03/03 10:25:13;;;;;;;48.78;19.98;;;11.00;83.90;;;;;;5057100;28;20490;-90
2024/03/03 10:27:41;;;;;;;45.33;21.30;;;11.20;82.70;;;;;;5077333;28;20074;-89
2024/03/03 10:30:09;;;;;;;36.42;18.83;;;11.20;81.60;;;;;;5059209;28;20032;-90
2024/03/03 10:32:36;;;;;;;47.00;20.52;;;11.10;81.50;;;;;;5077555;28;20017;-91
2024/03/03 10:35:02;;;;;;;46.67;20.92;;;11.20;81.70;;;;;;5080661;28;20074;-91
2024/03/03 10:37:29;;;;;;;47.10;20.60;;;11.20;80.50;;;;;;5081596;28;20024;-90
2024/03/03 10:39:55;;;;;;;49.42;21.77;;;11.30;80.40;;;;;;5080392;28;20021;-90
2024/03/03 10:42:22;;;;;;;40.55;18.67;;;11.40;80.00;;;;;;5086203;28;20497;-91
2024/03/03 10:44:48;;;;;;;51.72;25.50;;;11.60;78.50;;;;;;5049450;28;20385;-88
2024/03/03 10:47:14;;;;;;;42.80;20.35;;;11.80;78.60;;;;;;5050535;28;20044;-89
2024/03/03 10:49:41;;;;;;;41.58;21.13;;;11.80;78.40;;;;;;5064044;28;20028;-89
2024/03/03 10:52:10;;;;;;;54.25;23.20;;;11.80;78.20;;;;;;5044995;28;20044;-87
2024/03/03 10:54:38;;;;;;;52.00;20.70;;;11.70;77.80;;;;;;5046976;28;20036;-88
2024/03/03 10:57:05;;;;;;;41.45;19.30;;;11.60;77.80;;;;;;5045560;28;20218;-86
2024/03/03 10:59:34;;;;;;;38.22;19.65;;;11.50;78.60;;;;;;5050709;28;20134;-88
2024/03/03 11:02:03;;;;;;;47.55;20.25;;;11.50;79.00;;;;;;5051169;28;20040;-93
2024/03/03 11:04:32;;;;;;;37.55;18.90;;;11.60;78.50;;;;;;5062270;28;20032;-91
2024/03/03 11:07:05;;;;;;;45.58;19.75;;;11.70;78.10;;;;;;5049295;28;20024;-90
2024/03/03 11:09:31;;;;;;;43.67;20.27;;;11.80;77.30;;;;;;5044831;28;20033;-91
2024/03/03 11:12:05;;;;;;;45.38;19.95;;;11.90;77.30;;;;;;5051815;28;20163;-93
2024/03/03 11:14:58;;;;;;;34.50;17.50;;;12.00;76.70;;;;;;5054862;28;20021;-92
2024/03/03 11:17:29;;;;;;;40.83;18.27;;;12.20;76.70;;;;;;5053363;28;20549;-91
2024/03/03 11:19:59;;;;;;;51.15;18.67;;;12.40;75.50;;;;;;5060073;28;20376;-92
2024/03/03 11:22:25;;;;;;;39.25;16.65;;;12.50;74.60;;;;;;5044696;28;20073;-92
2024/03/03 11:25:03;;;;;;;37.28;18.80;;;12.70;73.30;;;;;;5050949;28;20470;-92
2024/03/03 11:27:29;;;;;;;56.35;19.05;;;12.80;73.00;;;;;;5055042;28;20080;-93
2024/03/03 11:29:56;;;;;;;32.88;16.35;;;13.00;70.70;;;;;;5049064;28;20498;-92
2024/03/03 11:32:27;;;;;;;37.00;16.98;;;12.90;69.90;;;;;;5042811;28;20381;-92
2024/03/03 11:34:53;;;;;;;38.92;16.50;;;12.90;69.50;;;;;;5051502;28;20017;-92
2024/03/03 11:37:20;;;;;;;42.45;16.83;;;12.70;70.10;;;;;;5056071;28;20024;-91
2024/03/03 11:39:55;;;;;;;36.97;16.33;;;12.70;70.70;;;;;;5049962;28;20115;-92
2024/03/03 11:42:41;;;;;;;34.38;16.35;;;12.90;70.20;;;;;;5032025;28;20573;-93
2024/03/03 11:45:09;;;;;;;34.55;17.35;;;13.10;70.30;;;;;;5051400;28;20077;-93
2024/03/03 11:47:46;;;;;;;44.97;19.30;;;13.10;69.50;;;;;;5040022;28;20578;-91
2024/03/03 11:50:22;;;;;;;35.30;17.10;;;13.10;69.60;;;;;;5049896;28;20032;-91
2024/03/03 11:52:49;;;;;;;30.27;17.40;;;13.20;68.90;;;;;;5064847;28;20034;-93
2024/03/03 11:55:27;;;;;;;34.75;16.05;;;13.40;68.60;;;;;;5036189;28;20112;-92
2024/03/03 11:57:58;;;;;;;37.10;15.90;;;13.50;68.10;;;;;;5039471;28;20067;-92
2024/03/03 12:00:24;;;;;;;32.75;17.42;;;13.70;68.00;;;;;;5044741;28;21000;-92
2024/03/03 12:02:51;;;;;;;33.42;15.68;;;13.80;66.00;;;;;;5050662;28;20052;-93
2024/03/03 12:05:17;;;;;;;30.63;16.30;;;13.70;65.70;;;;;;5035199;28;20032;-92
2024/03/03 12:07:48;;;;;;;34.55;14.98;;;13.70;66.00;;;;;;5061497;28;20525;-93
2024/03/03 12:10:22;;;;;;;33.08;17.33;;;13.80;66.20;;;;;;5042456;28;20021;-92
2024/03/03 12:12:56;;;;;;;36.55;15.98;;;13.80;66.20;;;;;;5031804;28;20028;-92
2024/03/03 12:15:23;;;;;;;26.67;15.02;;;14.00;65.00;;;;;;5042671;28;20225;-92
2024/03/03 12:17:57;;;;;;;40.47;16.70;;;13.90;64.70;;;;;;5025764;28;20041;-92
2024/03/03 12:20:25;;;;;;;33.70;15.93;;;14.00;64.50;;;;;;5045288;28;20032;-92
2024/03/03 12:22:51;;;;;;;33.58;15.20;;;13.90;65.30;;;;;;5057950;28;20112;-91
2024/03/03 12:25:22;;;;;;;35.03;15.52;;;13.90;64.40;;;;;;5054655;28;20032;-91
2024/03/03 12:27:56;;;;;;;30.25;14.40;;;14.00;64.50;;;;;;5062085;28;20028;-93
2024/03/03 12:30:34;;;;;;;29.95;14.38;;;13.90;64.60;;;;;;5068005;28;20028;-89
2024/03/03 12:33:05;;;;;;;33.42;15.10;;;14.00;64.20;;;;;;5062255;28;20027;-94
2024/03/03 12:35:32;;;;;;;30.23;16.23;;;14.00;64.50;;;;;;5063910;28;20028;-92
2024/03/03 12:37:58;;;;;;;29.67;14.77;;;14.10;63.50;;;;;;5077985;28;20028;-91